Time;durP1;ratioP1;P1;durP2;ratioP2;P2;SDS_P1;SDS_P2;PMS_P1;PMS_P2;Temp;Humidity;BMP_temperature;BMP_pressure;BME280_temperature;BME280_humidity;BME280_pressure;Samples;Min_cycle;Max_cycle;Signal;HPM_P1;HPM_P2
2022/12/28 00:01:30;;;;;;;8.20;8.00;;;0.20;99.90;;;;;;5142727;27;20260;-84
2022/12/28 00:04:00;;;;;;;8.20;8.00;;;0.20;99.90;;;;;;5143519;27;20271;-83
2022/12/28 00:06:31;;;;;;;8.20;8.00;;;0.20;99.90;;;;;;5143673;27;20274;-83
2022/12/28 00:09:04;;;;;;;8.03;7.83;;;0.20;99.90;;;;;;5143935;27;20271;-84
2022/12/28 00:11:32;;;;;;;8.10;7.90;;;0.20;99.90;;;;;;5143514;27;20235;-83
2022/12/28 00:14:02;;;;;;;8.00;7.80;;;0.10;99.90;;;;;;5142820;27;20282;-83
2022/12/28 00:16:33;;;;;;;8.10;7.90;;;0.10;99.90;;;;;;5143543;27;20234;-84
2022/12/28 00:19:04;;;;;;;8.10;7.90;;;0.10;99.90;;;;;;5146521;27;20220;-83
2022/12/28 00:21:33;;;;;;;8.10;7.90;;;0.00;99.90;;;;;;5146354;27;20313;-83
2022/12/28 00:24:02;;;;;;;8.20;8.00;;;0.00;99.90;;;;;;5154344;27;20257;-83
2022/12/28 00:26:32;;;;;;;8.13;7.93;;;0.00;99.90;;;;;;5160422;27;20223;-83
2022/12/28 00:29:01;;;;;;;8.17;7.97;;;0.00;99.90;;;;;;5161938;27;20216;-82
2022/12/28 00:31:29;;;;;;;7.97;7.77;;;0.00;99.90;;;;;;5161684;27;20212;-83
2022/12/28 00:33:56;;;;;;;8.33;8.13;;;0.00;99.90;;;;;;5161933;27;20217;-83
2022/12/28 00:36:24;;;;;;;8.00;7.80;;;0.00;99.90;;;;;;5161795;27;20234;-83
2022/12/28 00:38:53;;;;;;;8.13;7.93;;;0.00;99.90;;;;;;5161064;27;20218;-83
2022/12/28 00:41:21;;;;;;;8.30;8.10;;;0.00;99.90;;;;;;5161315;27;20209;-82
2022/12/28 00:43:49;;;;;;;8.20;8.00;;;0.00;99.90;;;;;;5161167;27;20212;-83
2022/12/28 00:46:17;;;;;;;8.20;8.00;;;0.10;99.90;;;;;;5160979;27;20255;-83
2022/12/28 00:48:45;;;;;;;8.20;8.00;;;0.00;99.90;;;;;;5162010;27;20220;-83
2022/12/28 00:51:16;;;;;;;8.17;7.97;;;0.10;99.90;;;;;;5161535;27;20207;-83
2022/12/28 00:53:45;;;;;;;8.20;8.00;;;0.10;99.90;;;;;;5161474;27;20239;-83
2022/12/28 00:56:16;;;;;;;8.17;7.97;;;0.10;99.90;;;;;;5161459;27;20274;-83
2022/12/28 00:58:44;;;;;;;8.07;7.87;;;0.10;99.90;;;;;;5160089;27;20208;-83
2022/12/28 01:01:15;;;;;;;8.07;7.87;;;0.10;99.90;;;;;;5159204;27;20228;-84
2022/12/28 01:03:43;;;;;;;8.03;7.83;;;0.10;99.90;;;;;;5161253;27;20232;-83
2022/12/28 01:06:14;;;;;;;8.00;7.80;;;0.10;99.90;;;;;;5161346;27;20212;-83
2022/12/28 01:08:42;;;;;;;8.20;8.00;;;0.10;99.90;;;;;;5160789;27;20219;-84
2022/12/28 01:11:14;;;;;;;8.10;7.90;;;0.10;99.90;;;;;;5160581;27;20238;-83
2022/12/28 01:13:42;;;;;;;8.20;8.00;;;0.10;99.90;;;;;;5158343;27;20232;-84
2022/12/28 01:16:16;;;;;;;8.20;8.00;;;0.10;99.90;;;;;;5154368;27;20227;-83
2022/12/28 01:18:45;;;;;;;8.20;8.00;;;0.10;99.90;;;;;;5150741;27;20238;-83
2022/12/28 01:21:14;;;;;;;8.23;8.03;;;0.10;99.90;;;;;;5157594;27;20207;-83
2022/12/28 01:23:42;;;;;;;8.20;8.00;;;0.10;99.90;;;;;;5158478;27;20258;-83
2022/12/28 01:26:10;;;;;;;8.10;7.90;;;0.10;99.90;;;;;;5152237;27;20250;-83
2022/12/28 01:28:40;;;;;;;8.17;7.97;;;0.10;99.90;;;;;;5159003;27;20242;-82
2022/12/28 01:31:10;;;;;;;8.20;8.00;;;0.10;99.90;;;;;;5158065;27;20240;-83
2022/12/28 01:33:38;;;;;;;8.10;7.90;;;0.10;99.90;;;;;;5150221;27;20238;-83
2022/12/28 01:36:08;;;;;;;8.10;7.90;;;0.10;99.90;;;;;;5146608;27;20248;-84
2022/12/28 01:38:36;;;;;;;8.10;7.90;;;0.10;99.90;;;;;;5146296;27;20225;-83
2022/12/28 01:41:07;;;;;;;8.10;7.90;;;0.10;99.90;;;;;;5145202;27;20223;-83
2022/12/28 01:43:46;;;;;;;7.90;7.70;;;0.10;99.90;;;;;;5144430;27;20294;-83
2022/12/28 01:46:16;;;;;;;7.90;7.70;;;0.10;99.90;;;;;;5144842;27;20294;-83
2022/12/28 01:48:48;;;;;;;7.97;7.77;;;0.10;99.90;;;;;;5144574;27;20283;-83
2022/12/28 01:51:18;;;;;;;7.90;7.70;;;0.10;99.90;;;;;;5146627;27;20233;-83
2022/12/28 01:53:47;;;;;;;8.00;7.80;;;0.10;99.90;;;;;;5153279;27;20246;-83
2022/12/28 01:56:15;;;;;;;8.00;7.80;;;0.10;99.90;;;;;;5164386;27;20238;-82
2022/12/28 01:58:45;;;;;;;7.60;7.40;;;0.20;99.90;;;;;;5163307;27;20279;-83
2022/12/28 02:01:13;;;;;;;8.00;7.80;;;0.20;99.90;;;;;;5162413;27;20241;-83
2022/12/28 02:03:41;;;;;;;8.00;7.80;;;0.20;99.90;;;;;;5162451;27;20279;-83
2022/12/28 02:06:12;;;;;;;7.87;7.67;;;0.20;99.90;;;;;;5162226;27;20230;-83
2022/12/28 02:08:46;;;;;;;7.80;7.60;;;0.20;99.90;;;;;;5161869;27;20246;-82
2022/12/28 02:11:17;;;;;;;8.00;7.80;;;0.20;99.90;;;;;;5157694;27;20228;-83
2022/12/28 02:13:49;;;;;;;7.90;7.70;;;0.20;99.90;;;;;;5156007;27;20235;-83
2022/12/28 02:16:16;;;;;;;8.10;7.90;;;0.20;99.90;;;;;;5156379;27;20335;-83
2022/12/28 02:18:46;;;;;;;8.00;7.80;;;0.20;99.90;;;;;;5152354;27;20296;-83
2022/12/28 02:21:24;;;;;;;8.20;8.00;;;0.20;99.90;;;;;;5148291;27;20221;-83
2022/12/28 02:24:45;;;;;;;8.20;8.00;;;0.30;99.90;;;;;;5144446;27;20232;-83
2022/12/28 02:27:24;;;;;;;8.10;7.90;;;0.30;99.90;;;;;;5108024;27;20729;-83
2022/12/28 02:30:04;;;;;;;8.20;8.00;;;0.30;99.90;;;;;;5144635;27;20235;-83
2022/12/28 02:32:55;;;;;;;8.20;8.00;;;0.30;99.90;;;;;;5143195;27;20231;-84
2022/12/28 02:35:30;;;;;;;8.30;8.10;;;0.30;99.90;;;;;;5143838;27;20228;-83
2022/12/28 02:38:06;;;;;;;8.37;8.17;;;0.30;99.90;;;;;;5144865;27;20303;-83
2022/12/28 02:40:41;;;;;;;8.20;8.00;;;0.30;99.90;;;;;;5144258;27;20231;-83
2022/12/28 02:43:09;;;;;;;8.10;7.90;;;0.30;99.90;;;;;;5143012;27;20227;-83
2022/12/28 02:51:56;;;;;;;8.20;8.00;;;0.30;99.90;;;;;;5103622;27;20220;-83
2022/12/28 02:58:11;;;;;;;8.00;7.80;;;0.30;99.90;;;;;;5144293;27;20231;-83
2022/12/28 03:00:57;;;;;;;8.07;7.87;;;0.30;99.90;;;;;;5143688;27;20228;-83
2022/12/28 03:03:33;;;;;;;8.00;7.80;;;0.20;99.90;;;;;;5144569;27;20287;-83
2022/12/28 03:09:07;;;;;;;7.87;7.67;;;0.30;99.90;;;;;;5145037;27;20297;-82
2022/12/28 03:11:40;;;;;;;8.10;7.90;;;0.30;99.90;;;;;;5144374;27;20255;-82
2022/12/28 03:14:14;;;;;;;7.90;7.70;;;0.20;99.90;;;;;;5143640;27;20247;-83
2022/12/28 03:31:05;;;;;;;7.80;7.60;;;0.40;99.90;;;;;;5146273;27;20239;-84
2022/12/28 03:33:36;;;;;;;7.80;7.60;;;0.40;99.90;;;;;;5143586;27;20228;-83
2022/12/28 03:36:12;;;;;;;8.00;7.80;;;0.40;99.90;;;;;;5143825;27;20317;-83
2022/12/28 03:38:55;;;;;;;7.90;7.70;;;0.40;99.90;;;;;;5144420;27;20251;-83
2022/12/28 03:41:29;;;;;;;7.70;7.50;;;0.40;99.90;;;;;;5143857;27;20369;-83
2022/12/28 03:44:03;;;;;;;7.70;7.50;;;0.40;99.90;;;;;;5143795;27;20270;-83
2022/12/28 03:46:38;;;;;;;7.80;7.60;;;0.40;99.90;;;;;;5144173;27;20220;-83
2022/12/28 03:49:07;;;;;;;7.63;7.43;;;0.50;99.90;;;;;;5144283;27;20238;-83
2022/12/28 03:51:35;;;;;;;7.90;7.70;;;0.50;99.90;;;;;;5143467;27;20289;-84
2022/12/28 03:54:02;;;;;;;7.80;7.60;;;0.50;99.90;;;;;;5143403;27;20236;-83
2022/12/28 03:56:30;;;;;;;7.73;7.53;;;0.60;99.90;;;;;;5143638;27;20311;-84
2022/12/28 03:58:58;;;;;;;7.70;7.50;;;0.60;99.90;;;;;;5143194;27;20318;-84
2022/12/28 04:01:25;;;;;;;7.70;7.50;;;0.60;99.90;;;;;;5145184;27;20224;-84
2022/12/28 04:03:53;;;;;;;7.80;7.60;;;0.70;99.90;;;;;;5144139;27;20240;-83
2022/12/28 04:06:22;;;;;;;7.50;7.30;;;0.70;99.90;;;;;;5147311;27;20212;-83
2022/12/28 04:08:50;;;;;;;7.60;7.40;;;0.70;99.90;;;;;;5160576;27;20216;-83
2022/12/28 04:11:17;;;;;;;7.50;7.30;;;0.70;99.90;;;;;;5161291;27;20216;-83
2022/12/28 04:13:45;;;;;;;7.60;7.40;;;0.70;99.90;;;;;;5151334;27;20231;-84
2022/12/28 04:16:15;;;;;;;7.60;7.40;;;0.70;99.90;;;;;;5143427;27;20250;-84
2022/12/28 04:18:43;;;;;;;7.60;7.40;;;0.70;99.90;;;;;;5142330;27;20270;-84
2022/12/28 04:21:13;;;;;;;7.57;7.37;;;0.70;99.90;;;;;;5142744;27;20322;-84
2022/12/28 04:23:42;;;;;;;7.63;7.43;;;0.70;99.90;;;;;;5142485;27;20246;-84
2022/12/28 04:26:13;;;;;;;7.40;7.20;;;0.70;99.90;;;;;;5142896;27;20224;-84
2022/12/28 04:28:42;;;;;;;7.33;7.13;;;0.70;99.90;;;;;;5142390;27;20270;-84
2022/12/28 04:31:13;;;;;;;7.50;7.30;;;0.70;99.90;;;;;;5142490;27;20260;-83
2022/12/28 04:33:41;;;;;;;7.50;7.30;;;0.70;99.90;;;;;;5142951;27;20327;-84
2022/12/28 04:36:12;;;;;;;7.50;7.30;;;0.70;99.90;;;;;;5143073;27;20247;-84
2022/12/28 04:38:42;;;;;;;7.50;7.30;;;0.70;99.90;;;;;;5142838;27;20217;-83
2022/12/28 04:41:11;;;;;;;7.53;7.33;;;0.70;99.90;;;;;;5143215;27;20235;-84
2022/12/28 04:43:39;;;;;;;7.47;7.27;;;0.70;99.90;;;;;;5191693;22;20236;-85
2022/12/28 04:46:11;;;;;;;7.70;7.50;;;0.80;99.90;;;;;;5163824;27;20318;-85
2022/12/28 04:48:39;;;;;;;7.60;7.40;;;0.80;99.90;;;;;;5164290;27;20212;-85
2022/12/28 04:51:09;;;;;;;7.57;7.37;;;0.80;99.90;;;;;;5163779;27;20223;-86
2022/12/28 04:56:27;;;;;;;7.70;7.50;;;0.90;99.90;;;;;;5164701;27;20230;-85
2022/12/28 04:58:56;;;;;;;7.90;7.70;;;1.00;99.90;;;;;;5164149;27;20227;-83
2022/12/28 05:01:24;;;;;;;7.80;7.60;;;1.00;99.90;;;;;;5164847;27;20239;-85
2022/12/28 05:03:54;;;;;;;7.90;7.70;;;1.00;99.90;;;;;;5164193;27;20288;-83
2022/12/28 05:06:23;;;;;;;7.80;7.60;;;1.00;99.90;;;;;;5165420;27;20234;-83
2022/12/28 05:08:55;;;;;;;7.50;7.30;;;1.00;99.90;;;;;;5164276;27;20276;-84
2022/12/28 05:11:30;;;;;;;7.70;7.50;;;1.10;99.90;;;;;;5163643;27;20227;-83
2022/12/28 05:14:00;;;;;;;7.70;7.50;;;1.10;99.90;;;;;;5167383;27;20235;-84
2022/12/28 05:16:29;;;;;;;7.50;7.30;;;1.20;99.90;;;;;;5171400;27;20258;-83
2022/12/28 05:18:59;;;;;;;7.70;7.50;;;1.20;99.90;;;;;;5168257;27;20215;-84
2022/12/28 05:21:28;;;;;;;7.90;7.70;;;1.20;99.90;;;;;;5166962;27;20259;-84
2022/12/28 05:24:00;;;;;;;7.70;7.50;;;1.20;99.90;;;;;;5165208;27;20239;-84
2022/12/28 05:26:29;;;;;;;7.50;7.30;;;1.20;99.90;;;;;;5168950;27;20225;-84
2022/12/28 05:28:57;;;;;;;7.40;7.20;;;1.20;99.90;;;;;;5166771;27;20762;-84
2022/12/28 05:31:25;;;;;;;7.50;7.30;;;1.30;99.90;;;;;;5166223;27;20227;-84
2022/12/28 05:33:56;;;;;;;7.50;7.30;;;1.30;99.90;;;;;;5166636;27;20334;-84
2022/12/28 05:36:26;;;;;;;7.27;7.07;;;1.20;99.90;;;;;;5166727;27;20273;-84
2022/12/28 05:38:58;;;;;;;7.30;7.10;;;1.30;99.90;;;;;;5170308;27;20211;-83
2022/12/28 05:41:28;;;;;;;7.60;7.40;;;1.30;99.90;;;;;;5175826;27;20249;-84
2022/12/28 05:44:04;;;;;;;7.60;7.40;;;1.30;99.90;;;;;;5169487;27;20242;-84
2022/12/28 05:46:34;;;;;;;7.40;7.20;;;1.40;99.90;;;;;;5170028;27;20249;-84
2022/12/28 05:49:04;;;;;;;7.53;7.33;;;1.40;99.90;;;;;;5170960;27;20262;-84
2022/12/28 05:51:33;;;;;;;7.50;7.30;;;1.40;99.90;;;;;;5168986;27;20231;-84
2022/12/28 05:54:04;;;;;;;7.60;7.40;;;1.50;99.90;;;;;;5168386;27;20322;-84
2022/12/28 05:56:33;;;;;;;7.40;7.20;;;1.50;99.90;;;;;;5168233;27;20268;-84
2022/12/28 05:59:12;;;;;;;7.63;7.43;;;1.50;99.90;;;;;;5168797;27;20231;-83
2022/12/28 06:01:41;;;;;;;7.70;7.50;;;1.60;99.90;;;;;;5178428;27;20208;-83
2022/12/28 06:04:16;;;;;;;7.60;7.40;;;1.60;99.90;;;;;;5179660;27;20235;-83
2022/12/28 06:06:46;;;;;;;7.50;7.30;;;1.70;99.90;;;;;;5167652;27;20223;-83
2022/12/28 06:09:24;;;;;;;7.60;7.40;;;1.80;99.90;;;;;;5166835;27;20224;-83
2022/12/28 06:11:53;;;;;;;7.80;7.60;;;1.80;99.90;;;;;;5165856;27;20295;-83
2022/12/28 06:14:25;;;;;;;7.60;7.40;;;1.80;99.90;;;;;;5165391;27;20223;-83
2022/12/28 06:16:53;;;;;;;7.70;7.50;;;1.80;99.90;;;;;;5165321;27;20226;-84
2022/12/28 06:19:22;;;;;;;7.70;7.50;;;1.90;99.90;;;;;;5166157;27;20212;-84
2022/12/28 06:21:52;;;;;;;7.70;7.50;;;1.90;99.90;;;;;;5165704;27;20231;-83
2022/12/28 06:24:25;;;;;;;7.80;7.60;;;1.90;99.90;;;;;;5165165;27;20259;-84
2022/12/28 06:26:53;;;;;;;7.73;7.53;;;1.90;99.90;;;;;;5165965;27;20242;-83
2022/12/28 06:29:29;;;;;;;7.67;7.47;;;1.90;99.90;;;;;;5166137;27;20241;-83
2022/12/28 06:31:59;;;;;;;7.50;7.30;;;1.90;99.90;;;;;;5165904;27;20223;-84
2022/12/28 06:34:28;;;;;;;7.63;7.43;;;1.90;99.90;;;;;;5165284;27;20322;-84
2022/12/28 06:37:03;;;;;;;7.70;7.50;;;1.90;99.90;;;;;;5165034;27;20258;-84
2022/12/28 06:39:36;;;;;;;7.67;7.47;;;2.00;99.90;;;;;;5165700;27;20280;-83
2022/12/28 06:42:04;;;;;;;7.60;7.40;;;2.00;99.90;;;;;;5165715;27;20238;-84
2022/12/28 06:44:34;;;;;;;7.60;7.40;;;2.00;99.90;;;;;;5165252;27;20270;-83
2022/12/28 06:47:03;;;;;;;7.57;7.37;;;2.10;99.90;;;;;;5166107;27;20227;-83
2022/12/28 06:49:33;;;;;;;7.70;7.50;;;2.10;99.90;;;;;;5166595;27;20310;-83
2022/12/28 06:52:02;;;;;;;7.57;7.37;;;2.10;99.90;;;;;;5169163;27;20254;-83
2022/12/28 06:54:33;;;;;;;7.40;7.20;;;2.10;99.90;;;;;;5172341;27;20298;-84
2022/12/28 06:57:01;;;;;;;7.63;7.43;;;2.20;99.90;;;;;;5167875;27;20257;-83
2022/12/28 06:59:30;;;;;;;7.60;7.40;;;2.20;99.90;;;;;;5167716;27;20306;-83
2022/12/28 07:02:00;;;;;;;7.70;7.50;;;2.20;99.90;;;;;;5167103;27;20254;-83
2022/12/28 07:04:29;;;;;;;7.60;7.40;;;2.30;99.90;;;;;;5176706;27;20254;-84
2022/12/28 07:06:58;;;;;;;7.50;7.30;;;2.30;99.90;;;;;;5180700;27;20227;-83
2022/12/28 07:09:28;;;;;;;7.77;7.57;;;2.40;99.90;;;;;;5169073;27;20301;-83
2022/12/28 07:12:06;;;;;;;7.57;7.37;;;2.40;99.90;;;;;;5163968;27;20318;-84
2022/12/28 07:14:36;;;;;;;7.80;7.60;;;2.40;99.90;;;;;;5164090;27;20294;-83
2022/12/28 07:17:05;;;;;;;7.60;7.40;;;2.40;99.90;;;;;;5164658;27;20227;-84
2022/12/28 07:19:35;;;;;;;7.80;7.60;;;2.50;99.90;;;;;;5163897;27;20227;-84
2022/12/28 07:22:04;;;;;;;7.93;7.73;;;2.50;99.90;;;;;;5165102;27;20228;-84
2022/12/28 07:24:33;;;;;;;7.83;7.63;;;2.60;99.90;;;;;;5164520;27;20261;-83
2022/12/28 07:27:12;;;;;;;7.60;7.40;;;2.60;99.90;;;;;;5164900;27;20300;-83
2022/12/28 07:29:41;;;;;;;7.90;7.70;;;2.70;99.90;;;;;;5164619;27;20287;-83
2022/12/28 07:32:11;;;;;;;7.57;7.37;;;2.70;99.90;;;;;;5164576;27;20235;-84
2022/12/28 07:34:40;;;;;;;7.53;7.33;;;2.70;99.90;;;;;;5164371;27;20273;-84
2022/12/28 07:37:09;;;;;;;7.70;7.50;;;2.80;99.90;;;;;;5165399;27;20334;-84
2022/12/28 07:39:40;;;;;;;7.73;7.53;;;2.80;99.90;;;;;;5165273;27;20241;-84
2022/12/28 07:42:19;;;;;;;7.70;7.50;;;2.80;99.90;;;;;;5165161;27;20231;-84
2022/12/28 07:44:49;;;;;;;7.73;7.53;;;2.90;99.90;;;;;;5164924;27;20259;-83
2022/12/28 07:47:18;;;;;;;7.67;7.47;;;2.90;99.90;;;;;;5164978;27;20259;-84
2022/12/28 07:49:48;;;;;;;7.70;7.50;;;3.00;99.90;;;;;;5177777;27;20334;-83
2022/12/28 07:52:17;;;;;;;7.90;7.70;;;3.00;99.90;;;;;;5174884;27;20227;-83
2022/12/28 07:54:46;;;;;;;7.90;7.70;;;3.10;99.90;;;;;;5168924;27;20235;-84
2022/12/28 07:57:25;;;;;;;8.00;7.80;;;3.10;99.90;;;;;;5167612;27;20241;-83
2022/12/28 07:59:54;;;;;;;7.90;7.70;;;3.20;99.90;;;;;;5165476;27;20234;-84
2022/12/28 08:02:23;;;;;;;7.87;7.67;;;3.20;99.90;;;;;;5166042;27;20245;-83
2022/12/28 08:04:53;;;;;;;7.90;7.70;;;3.20;99.90;;;;;;5165510;27;20235;-84
2022/12/28 08:07:22;;;;;;;7.90;7.70;;;3.30;99.90;;;;;;5175392;27;20216;-84
2022/12/28 08:09:52;;;;;;;8.00;7.80;;;3.40;99.90;;;;;;5171207;27;20248;-84
2022/12/28 08:12:24;;;;;;;7.90;7.70;;;3.40;99.90;;;;;;5171961;27;20234;-84
2022/12/28 08:14:52;;;;;;;7.60;7.40;;;3.50;99.90;;;;;;5169867;27;20287;-83
2022/12/28 08:17:22;;;;;;;8.00;7.80;;;3.50;99.90;;;;;;5167983;27;20253;-84
2022/12/28 08:19:49;;;;;;;8.00;7.80;;;3.60;99.90;;;;;;5166747;27;20207;-84
2022/12/28 08:22:20;;;;;;;7.80;7.60;;;3.60;99.90;;;;;;5166220;27;20223;-84
2022/12/28 08:24:49;;;;;;;7.87;7.67;;;3.70;99.90;;;;;;5165654;27;20239;-84
2022/12/28 08:27:18;;;;;;;8.10;7.90;;;3.70;99.90;;;;;;5166050;27;20281;-84
2022/12/28 08:32:34;;;;;;;8.13;7.93;;;3.80;99.90;;;;;;5164770;27;20223;-84
2022/12/28 08:35:04;;;;;;;8.07;7.87;;;3.80;99.90;;;;;;5164988;27;20230;-84
2022/12/28 08:37:33;;;;;;;8.03;7.83;;;3.90;99.90;;;;;;5165299;27;20262;-84
2022/12/28 08:40:05;;;;;;;8.30;8.10;;;4.00;99.90;;;;;;5165508;27;20263;-84
2022/12/28 08:42:32;;;;;;;8.30;8.10;;;4.00;99.90;;;;;;5172024;27;20233;-83
2022/12/28 08:45:13;;;;;;;8.20;8.00;;;4.10;99.90;;;;;;5165293;27;20292;-84
2022/12/28 08:47:43;;;;;;;8.40;8.20;;;4.20;99.90;;;;;;5166362;27;20235;-85
2022/12/28 08:50:11;;;;;;;8.50;8.30;;;4.30;99.90;;;;;;5166569;27;20218;-85
2022/12/28 08:52:38;;;;;;;8.80;8.60;;;4.40;99.90;;;;;;5165493;27;20239;-83
2022/12/28 08:55:08;;;;;;;8.70;8.50;;;4.50;99.90;;;;;;5165822;27;20281;-85
2022/12/28 08:57:37;;;;;;;8.50;8.30;;;4.50;99.90;;;;;;5164535;27;20231;-85
2022/12/28 09:00:17;;;;;;;9.10;8.80;;;4.60;99.90;;;;;;5164293;27;20245;-84
2022/12/28 09:02:55;;;;;;;9.00;8.70;;;4.60;99.90;;;;;;5164528;27;20294;-85
2022/12/28 09:05:23;;;;;;;8.70;8.50;;;4.70;99.90;;;;;;5164330;27;20235;-84
2022/12/28 09:07:55;;;;;;;8.83;8.63;;;4.70;99.90;;;;;;5165197;27;20231;-84
2022/12/28 09:10:22;;;;;;;8.80;8.60;;;4.80;99.90;;;;;;5164639;27;20219;-85
2022/12/28 09:12:52;;;;;;;8.80;8.60;;;4.90;99.90;;;;;;5165506;27;20240;-85
2022/12/28 09:15:24;;;;;;;9.03;8.73;;;4.90;99.90;;;;;;5164725;27;20223;-85
2022/12/28 09:17:51;;;;;;;9.10;8.80;;;5.00;99.90;;;;;;5164377;27;20244;-85
2022/12/28 09:20:20;;;;;;;9.23;8.93;;;5.00;99.90;;;;;;5165131;27;20212;-85
2022/12/28 09:22:49;;;;;;;9.33;9.03;;;5.10;99.90;;;;;;5164725;27;20247;-84
2022/12/28 09:25:19;;;;;;;9.10;8.80;;;5.10;99.90;;;;;;5173981;27;20231;-84
2022/12/28 09:27:49;;;;;;;8.73;8.53;;;5.20;99.90;;;;;;5172030;27;20227;-85
2022/12/28 09:30:18;;;;;;;8.70;8.50;;;5.20;99.90;;;;;;5166385;27;20226;-85
2022/12/28 09:33:57;;;;;;;8.63;8.43;;;5.30;99.90;;;;;;5165900;27;20262;-84
2022/12/28 09:35:46;;;;;;;8.50;8.30;;;5.30;99.90;;;;;;5164238;27;20219;-85
2022/12/28 09:38:14;;;;;;;8.23;8.03;;;5.30;99.90;;;;;;5165011;27;20314;-85
2022/12/28 09:40:43;;;;;;;8.40;8.20;;;5.40;99.90;;;;;;5164846;27;20224;-84
2022/12/28 09:43:14;;;;;;;8.50;8.30;;;5.40;99.90;;;;;;5164334;27;20265;-85
2022/12/28 09:45:43;;;;;;;8.47;8.27;;;5.40;99.90;;;;;;5164401;27;20238;-84
2022/12/28 09:48:22;;;;;;;8.60;8.40;;;5.50;99.90;;;;;;5165111;27;20228;-84
2022/12/28 09:50:54;;;;;;;8.63;8.43;;;5.50;99.90;;;;;;5165490;27;20234;-85
2022/12/28 09:53:30;;;;;;;8.70;8.50;;;5.60;99.90;;;;;;5164591;27;20257;-85
2022/12/28 09:56:17;;;;;;;8.60;8.40;;;5.60;99.90;;;;;;5166131;27;20252;-85
2022/12/28 09:58:45;;;;;;;9.00;8.70;;;5.60;99.90;;;;;;5179241;27;20244;-84
2022/12/28 10:01:27;;;;;;;8.60;8.40;;;5.70;99.90;;;;;;5180414;27;20215;-86
2022/12/28 10:04:02;;;;;;;8.80;8.60;;;5.70;99.90;;;;;;5179019;27;20268;-85
2022/12/28 10:06:34;;;;;;;8.70;8.50;;;5.70;99.90;;;;;;5176960;27;20238;-85
2022/12/28 10:09:10;;;;;;;8.70;8.50;;;5.80;99.90;;;;;;5169007;27;20315;-85
2022/12/28 10:11:47;;;;;;;8.70;8.50;;;5.90;99.90;;;;;;5168526;27;20234;-85
2022/12/28 10:14:26;;;;;;;8.70;8.50;;;5.90;99.90;;;;;;5172759;27;20239;-85
2022/12/28 10:16:55;;;;;;;8.53;8.33;;;6.00;99.90;;;;;;5169048;27;20223;-85
2022/12/28 10:19:33;;;;;;;8.53;8.33;;;6.00;99.90;;;;;;5168028;27;21206;-85
2022/12/28 10:22:14;;;;;;;8.60;8.40;;;6.10;99.90;;;;;;5167783;27;20211;-85
2022/12/28 10:24:50;;;;;;;8.50;8.30;;;6.10;99.90;;;;;;5168159;27;20325;-85
2022/12/28 10:30:18;;;;;;;8.80;8.60;;;6.40;99.90;;;;;;5168204;27;20223;-85
2022/12/28 10:32:55;;;;;;;8.83;8.63;;;6.50;99.90;;;;;;5165660;27;20235;-85
2022/12/28 10:35:33;;;;;;;8.70;8.50;;;6.70;99.90;;;;;;5166634;27;20227;-85
2022/12/28 10:38:11;;;;;;;8.60;8.40;;;6.80;99.90;;;;;;5167056;27;20231;-84
2022/12/28 10:40:39;;;;;;;8.80;8.60;;;7.00;99.90;;;;;;5166806;27;20231;-85
2022/12/28 10:43:07;;;;;;;8.60;8.40;;;7.20;99.90;;;;;;5191287;22;20223;31
2022/12/28 10:45:39;;;;;;;8.80;8.60;;;7.20;99.90;;;;;;5150864;27;20243;-83
2022/12/28 10:48:18;;;;;;;8.97;8.77;;;7.30;99.90;;;;;;5152173;27;20282;-83
2022/12/28 10:50:52;;;;;;;8.97;8.77;;;7.30;99.90;;;;;;5145868;27;20250;-83
2022/12/28 10:53:27;;;;;;;9.20;8.90;;;7.30;99.90;;;;;;5149407;27;20226;-83
2022/12/28 10:56:24;;;;;;;9.20;8.90;;;7.30;99.90;;;;;;5183321;27;20227;-82
2022/12/28 10:58:53;;;;;;;8.80;8.60;;;7.30;99.90;;;;;;5177805;27;20208;-83
2022/12/28 11:01:27;;;;;;;8.77;8.57;;;7.30;99.90;;;;;;5184107;27;20211;-82
2022/12/28 11:04:07;;;;;;;8.80;8.60;;;7.30;99.90;;;;;;5183946;27;20227;-84
2022/12/28 11:06:51;;;;;;;8.70;8.50;;;7.40;99.90;;;;;;5182563;27;20235;-84
2022/12/28 11:09:24;;;;;;;8.77;8.57;;;7.50;99.90;;;;;;5183421;27;20226;-84
2022/12/28 11:11:55;;;;;;;9.23;8.93;;;7.50;99.90;;;;;;5184180;27;20275;-83
2022/12/28 11:14:32;;;;;;;9.20;8.90;;;7.60;99.90;;;;;;5183743;27;20235;-82
2022/12/28 11:17:15;;;;;;;9.13;8.83;;;7.70;99.90;;;;;;5184120;27;20215;-82
2022/12/28 11:19:44;;;;;;;9.20;8.90;;;7.80;99.90;;;;;;5184391;27;20211;-82
2022/12/28 11:22:21;;;;;;;9.30;9.00;;;7.90;99.90;;;;;;5183726;27;20272;-83
2022/12/28 11:24:49;;;;;;;9.30;9.00;;;8.00;99.90;;;;;;5183369;27;20210;-82
2022/12/28 11:27:20;;;;;;;9.40;9.10;;;8.10;99.90;;;;;;5183805;27;20250;-82
2022/12/28 11:29:50;;;;;;;9.53;9.23;;;8.30;99.90;;;;;;5183511;27;20223;-83
2022/12/28 11:32:23;;;;;;;9.53;9.23;;;8.50;99.90;;;;;;5183266;27;20252;-83
2022/12/28 11:34:53;;;;;;;9.70;9.40;;;8.70;99.90;;;;;;5184078;27;20208;-83
2022/12/28 11:37:22;;;;;;;9.47;9.17;;;8.90;99.90;;;;;;5183740;27;20195;-83
2022/12/28 11:39:52;;;;;;;9.37;9.07;;;9.00;99.90;;;;;;5183833;27;20237;-83
2022/12/28 11:42:56;;;;;;;9.40;9.10;;;8.90;99.90;;;;;;5183321;27;20208;-83
2022/12/28 11:45:53;;;;;;;8.93;8.70;;;8.80;99.90;;;;;;5202432;27;20214;-83
2022/12/28 11:48:49;;;;;;;9.57;9.27;;;8.50;99.90;;;;;;5204234;27;20274;-83
2022/12/28 11:51:19;;;;;;;9.50;9.20;;;8.30;99.90;;;;;;5204279;27;20226;-83
2022/12/28 11:53:56;;;;;;;9.33;9.03;;;8.40;99.90;;;;;;5190613;27;20290;-83
2022/12/28 11:56:29;;;;;;;9.40;9.10;;;8.30;99.90;;;;;;5187875;27;20226;-84
2022/12/28 11:59:13;;;;;;;9.60;9.30;;;8.30;99.90;;;;;;5188377;27;20260;-84
2022/12/28 12:01:52;;;;;;;9.60;9.30;;;8.20;99.90;;;;;;5187765;27;20248;-84
2022/12/28 12:04:41;;;;;;;9.40;9.10;;;8.30;99.90;;;;;;5187770;27;20226;-83
2022/12/28 12:07:47;;;;;;;9.30;9.00;;;8.40;99.90;;;;;;5186589;27;20271;-84
2022/12/28 12:10:35;;;;;;;9.30;9.00;;;8.40;99.90;;;;;;5187316;27;20230;-84
2022/12/28 12:13:43;;;;;;;8.73;8.53;;;8.30;99.90;;;;;;5186988;27;20229;-84
2022/12/28 12:16:24;;;;;;;8.83;8.63;;;8.20;99.90;;;;;;5186305;27;20230;-84
2022/12/28 12:18:56;;;;;;;9.10;8.80;;;8.20;99.90;;;;;;5186775;27;20207;-83
2022/12/28 12:21:35;;;;;;;9.10;8.80;;;8.20;99.90;;;;;;5188363;27;20245;-83
2022/12/28 12:24:18;;;;;;;9.03;8.73;;;8.30;99.90;;;;;;5187822;27;20297;-84
2022/12/28 12:26:53;;;;;;;9.10;8.80;;;8.40;99.90;;;;;;5185839;27;20264;-84
2022/12/28 12:29:28;;;;;;;9.30;9.00;;;8.40;99.90;;;;;;5186488;27;20226;-84
2022/12/28 12:32:01;;;;;;;9.13;8.83;;;8.50;99.90;;;;;;5185939;27;20232;-84
2022/12/28 12:34:41;;;;;;;9.30;9.00;;;8.50;99.90;;;;;;5185849;27;20234;-84
2022/12/28 12:37:37;;;;;;;9.20;8.90;;;8.60;99.90;;;;;;5185931;27;20219;-83
2022/12/28 12:40:55;;;;;;;9.20;8.90;;;8.80;99.90;;;;;;5185778;27;20615;-83
2022/12/28 12:43:40;;;;;;;8.80;8.60;;;8.90;99.90;;;;;;5186092;27;20230;-84
2022/12/28 12:47:08;;;;;;;9.10;8.80;;;8.90;99.90;;;;;;5196800;27;20230;-84
2022/12/28 12:50:17;;;;;;;9.00;8.70;;;8.90;99.90;;;;;;5199889;27;20222;-83
2022/12/28 12:52:59;;;;;;;9.10;8.80;;;9.10;99.90;;;;;;5189924;27;20238;-83
2022/12/28 12:55:50;;;;;;;9.20;8.90;;;9.30;99.90;;;;;;5188644;27;20235;-83
2022/12/28 12:58:24;;;;;;;9.27;8.97;;;9.30;99.90;;;;;;5188319;27;20214;-84
2022/12/28 13:01:23;;;;;;;8.80;8.60;;;9.20;99.90;;;;;;5188111;27;20241;-85
2022/12/28 13:03:52;;;;;;;9.17;8.87;;;9.10;99.90;;;;;;5187921;27;20322;-84
2022/12/28 13:06:24;;;;;;;8.97;8.77;;;9.00;99.90;;;;;;5187820;27;20298;-84
2022/12/28 13:08:57;;;;;;;9.10;8.80;;;9.00;99.90;;;;;;5187151;27;20279;-84
2022/12/28 13:11:26;;;;;;;9.53;9.23;;;9.00;99.90;;;;;;5187157;27;20218;-84
2022/12/28 13:13:57;;;;;;;9.50;9.20;;;9.00;99.90;;;;;;5191537;27;20282;-84
2022/12/28 13:16:32;;;;;;;9.50;9.20;;;9.10;99.90;;;;;;5189964;27;20230;-82
2022/12/28 13:19:02;;;;;;;9.37;9.07;;;9.10;99.90;;;;;;5189191;27;20234;-83
2022/12/28 13:21:40;;;;;;;9.40;9.10;;;9.20;99.90;;;;;;5188078;27;20233;-83
2022/12/28 13:24:21;;;;;;;9.20;8.90;;;9.20;99.90;;;;;;5187810;27;20241;-84
2022/12/28 13:26:50;;;;;;;9.17;8.87;;;9.30;99.90;;;;;;5187539;27;20234;-84
2022/12/28 13:29:21;;;;;;;9.03;8.80;;;9.20;99.90;;;;;;5186463;27;20265;-83
2022/12/28 13:31:51;;;;;;;8.83;8.63;;;9.10;99.90;;;;;;5194828;27;20222;-83
2022/12/28 13:34:23;;;;;;;8.70;8.50;;;9.00;99.90;;;;;;5195407;27;20268;-84
2022/12/28 13:36:55;;;;;;;8.57;8.37;;;8.80;99.90;;;;;;5188091;27;20226;-84
2022/12/28 13:39:24;;;;;;;8.70;8.50;;;8.80;99.90;;;;;;5182600;27;20264;-84
2022/12/28 13:41:54;;;;;;;8.40;8.20;;;8.60;99.90;;;;;;5183402;27;20246;-84
2022/12/28 13:44:38;;;;;;;8.40;8.20;;;8.60;99.90;;;;;;5183262;27;20259;-83
2022/12/28 13:47:15;;;;;;;8.80;8.60;;;8.60;99.90;;;;;;5187828;27;20226;-85
2022/12/28 13:49:47;;;;;;;8.60;8.40;;;8.60;99.90;;;;;;5189424;27;20273;-84
2022/12/28 13:52:19;;;;;;;9.00;8.70;;;8.60;99.90;;;;;;5187303;27;20227;-83
2022/12/28 13:54:52;;;;;;;8.80;8.60;;;8.60;99.90;;;;;;5186635;27;20231;-84
2022/12/28 13:57:28;;;;;;;8.53;8.33;;;8.60;99.90;;;;;;5187664;27;20230;-83
2022/12/28 14:00:00;;;;;;;8.80;8.60;;;8.60;99.90;;;;;;5188671;27;20226;-83
2022/12/28 14:02:29;;;;;;;8.50;8.30;;;8.50;99.90;;;;;;5188376;27;20244;-84
2022/12/28 14:04:57;;;;;;;8.60;8.40;;;8.50;99.90;;;;;;5188724;27;20314;-83